Time;durP1;ratioP1;P1;durP2;ratioP2;P2;SDS_P1;SDS_P2;PMS_P1;PMS_P2;Temp;Humidity;BMP_temperature;BMP_pressure;BME280_temperature;BME280_humidity;BME280_pressure;Samples;Min_cycle;Max_cycle;Signal;HPM_P1;HPM_P2
2023/10/12 00:24:58;;;;;;;;;;;;;;;;;;;;;
2023/10/12 00:38:52;;;;;;;6.80;4.50;;;;;;;15.36;83.25;98699.93;226536;1269;22552;-81
2023/10/12 00:58:50;;;;;;;;;;;;;;;;;;;;;
2023/10/12 01:04:54;;;;;;;;;;;;;;;;;;;;;
2023/10/12 01:11:51;;;;;;;9.60;4.70;;;;;;;15.18;84.34;98654.52;226744;1276;24253;-81
2023/10/12 01:18:21;;;;;;;;;;;;;;;;;;;;;
2023/10/12 01:25:28;;;;;;;6.80;4.90;;;;;;;15.34;84.12;98646.30;226613;1275;22561;-81
2023/10/12 01:31:53;;;;;;;;;;;;;;;;;;;;;
2023/10/12 01:44:58;;;;;;;9.40;6.30;;;;;;;15.34;84.03;98629.82;222959;1275;5421722;-81
2023/10/12 01:58:58;;;;;;;14.20;6.10;;;;;;;15.24;84.05;98635.27;225092;1281;22559;-80
2023/10/12 02:05:29;;;;;;;9.00;6.00;;;;;;;15.22;84.03;98634.30;225794;1281;22532;-80
2023/10/12 02:18:53;;;;;;;;;;;;;;;;;;;;;
2023/10/12 02:25:37;;;;;;;;;;;;;;;;;;;;;
2023/10/12 02:45:15;;;;;;;;;;;;;;;;;;;;;
2023/10/12 02:51:50;;;;;;;;;;;;;;;;;;;;;
2023/10/12 03:05:09;;;;;;;9.50;5.50;;;;;;;15.01;84.64;98597.86;225138;1281;22651;-80
2023/10/12 03:11:47;;;;;;;;;;;;;;;;;;;;;
2023/10/12 03:34:13;;;;;;;;;;;;;;;;;;;;;
2023/10/12 04:01:33;;;;;;;15.40;6.20;;;;;;;15.22;83.94;98579.56;225506;1281;24216;-81
2023/10/12 04:13:12;;;;;;;11.00;5.80;;;;;;;15.33;83.71;98563.02;226734;1275;22558;-80
2023/10/12 04:24:47;;;;;;;10.60;6.10;;;;;;;15.39;83.17;98549.30;226998;1273;25681;-80
2023/10/12 04:30:42;;;;;;;;;;;;;;;;;;;;;
2023/10/12 04:36:34;;;;;;;12.20;5.90;;;;;;;15.35;82.91;98558.59;226255;1279;22562;-80
2023/10/12 04:41:37;;;;;;;14.70;5.90;;;;;;;15.34;82.74;98555.90;226233;1279;22534;-81
2023/10/12 04:47:24;;;;;;;11.50;5.80;;;;;;;15.30;82.53;98559.58;226252;1279;24152;-80
2023/10/12 04:53:15;;;;;;;14.70;6.10;;;;;;;15.23;82.61;98551.09;226263;1279;22545;-81
2023/10/12 04:59:52;;;;;;;;;;;;;;;;;;;;;
2023/10/12 05:06:23;;;;;;;10.90;5.80;;;;;;;15.14;82.57;98550.98;226759;1275;22524;-81
2023/10/12 05:12:26;;;;;;;;;;;;;;;;;;;;;
2023/10/12 05:18:20;;;;;;;10.10;5.60;;;;;;;15.13;82.59;98537.86;227030;1275;22533;-80
2023/10/12 05:24:31;;;;;;;10.20;5.60;;;;;;;15.15;82.71;98542.00;226062;1280;25437;-80
2023/10/12 05:37:08;;;;;;;;;;;;;;;;;;;;;
2023/10/12 05:43:10;;;;;;;;;;;;;;;;;;;;;
2023/10/12 05:48:58;;;;;;;;;;;;;;;;;;;;;
2023/10/12 05:54:38;;;;;;;13.00;5.70;;;;;;;15.52;82.04;98553.46;226845;1269;22534;-79
2023/10/12 06:06:22;;;;;;;9.90;5.30;;;;;;;15.95;81.44;98563.01;226102;1272;25369;-75
2023/10/12 06:12:18;;;;;;;9.90;5.50;;;;;;;16.17;81.02;98563.82;226448;1269;22564;-83
2023/10/12 06:18:46;;;;;;;9.10;5.30;;;;;;;16.43;80.45;98568.60;226544;1269;22537;-82
2023/10/12 06:24:35;;;;;;;9.60;6.50;;;;;;;16.71;80.37;98577.72;225839;1269;22558;-84
2023/10/12 06:31:04;;;;;;;;;;;;;;;;;;;;;
2023/10/12 06:50:00;;;;;;;;;;;;;;;;;;;;;
2023/10/12 06:55:23;;;;;;;11.90;4.90;;;;;;;17.53;77.70;98595.11;225747;1272;22576;-81
2023/10/12 07:06:40;;;;;;;;;;;;;;;17.49;77.20;98603.64;226008;1260;22539;-81
2023/10/12 07:12:23;;;;;;;8.00;4.90;;;;;;;17.47;76.90;98606.75;226129;1272;22536;-82
2023/10/12 07:17:53;;;;;;;9.60;4.70;;;;;;;17.54;76.83;98601.55;226085;1270;23026;-82
2023/10/12 07:23:21;;;;;;;10.80;6.00;;;;;;;17.71;76.98;98600.08;226053;1272;22551;-82
2023/10/12 07:28:43;;;;;;;10.20;4.90;;;;;;;17.95;76.86;98589.21;226119;1273;22631;-83
2023/10/12 07:34:23;;;;;;;8.80;4.60;;;;;;;18.26;76.01;98584.55;226262;1270;24210;-82
2023/10/12 07:39:55;;;;;;;6.90;4.70;;;;;;;18.62;75.61;98587.02;226488;1275;22574;-81
2023/10/12 07:45:58;;;;;;;;;;;;;;;;;;;;;
2023/10/12 07:51:54;;;;;;;8.40;4.80;;;;;;;19.28;74.48;98589.14;226497;1269;22557;-82
2023/10/12 07:57:02;;;;;;;9.90;5.50;;;;;;;19.56;73.80;98592.50;226644;1268;22672;-85
2023/10/12 08:03:16;;;;;;;;;;;;;;;;;;;;;
2023/10/12 08:08:32;;;;;;;9.80;4.40;;;;;;;20.01;72.06;98592.30;226222;1272;22533;-85
2023/10/12 08:13:58;;;;;;;;;;;;;;;;;;;;;
2023/10/12 08:24:22;;;;;;;10.80;5.10;;;;;;;20.50;70.78;98599.79;226623;1267;22536;-83
2023/10/12 08:34:49;;;;;;;11.00;5.10;;;;;;;20.46;69.36;98583.43;226420;1270;27178;-81
2023/10/12 08:40:19;;;;;;;7.00;4.60;;;;;;;20.28;69.18;98576.12;226352;1272;22557;-81
2023/10/12 08:45:42;;;;;;;9.30;4.90;;;;;;;20.17;68.60;98580.31;225801;1272;23360;-81
2023/10/12 08:51:08;;;;;;;6.70;3.90;;;;;;;20.20;68.90;98586.84;225722;1273;22573;-81
2023/10/12 08:56:46;;;;;;;9.80;4.90;;;;;;;20.28;68.16;98597.05;225670;1275;22533;-82
2023/10/12 09:02:18;;;;;;;8.30;4.50;;;;;;;20.40;68.49;98598.58;225745;1272;22573;-81
2023/10/12 09:08:03;;;;;;;9.70;4.70;;;;;;;20.61;68.43;98606.10;225799;1275;23932;-81
2023/10/12 09:13:58;;;;;;;;;;;;;;;;;;;;;
2023/10/12 09:19:43;;;;;;;9.70;5.00;;;;;;;20.79;67.25;98626.48;226469;1268;22471;-83
2023/10/12 09:25:05;;;;;;;7.70;4.70;;;;;;;20.80;67.65;98642.17;226517;1253;22541;-83
2023/10/12 09:30:46;;;;;;;6.50;5.00;;;;;;;20.97;68.00;98662.76;226312;1272;22546;-84
2023/10/12 09:36:01;;;;;;;9.20;4.90;;;;;;;21.04;67.37;98664.91;226261;1266;22548;-83
2023/10/12 09:41:15;;;;;;;9.80;5.60;;;;;;;21.17;66.88;98671.35;226283;1269;22612;-82
2023/10/12 09:46:27;;;;;;;10.20;5.20;;;;;;;21.32;66.61;98664.95;226243;1275;22585;-82
2023/10/12 09:51:35;;;;;;;14.20;6.00;;;;;;;21.59;66.92;98668.96;226134;1268;26677;-80
2023/10/12 09:56:52;;;;;;;9.10;5.70;;;;;;;21.89;66.61;98662.35;226122;1259;25354;-81
2023/10/12 10:02:27;;;;;;;;;;;;;;;21.93;65.63;98659.57;226166;1259;22551;-81
2023/10/12 10:07:38;;;;;;;7.90;4.90;;;;;;;22.08;65.86;98656.25;226198;1271;23048;-81
2023/10/12 10:12:42;;;;;;;9.00;5.70;;;;;;;22.26;65.11;98657.41;225919;1275;22921;-81
2023/10/12 10:17:53;;;;;;;7.10;5.30;;;;;;;22.36;65.08;98654.86;226041;1266;22543;-80
2023/10/12 10:23:14;;;;;;;9.10;5.30;;;;;;;22.43;64.48;98659.54;226541;1262;22567;-83
2023/10/12 10:29:27;;;;;;;;;;;;;;;;;;;;;
2023/10/12 10:36:54;;;;;;;;;;;;;;;;;;;;;
2023/10/12 10:44:09;;;;;;;;;;;;;;;;;;;;;
2023/10/12 10:49:56;;;;;;;9.20;5.10;;;;;;;22.30;64.94;98678.04;226615;1279;22548;-92
2023/10/12 10:56:00;;;;;;;11.20;4.90;;;;;;;22.34;64.66;98673.54;226750;1279;22634;-87
2023/10/12 11:01:33;;;;;;;8.90;4.90;;;;;;;22.33;64.63;98667.66;225746;1282;22578;-88
2023/10/12 11:07:11;;;;;;;8.40;5.20;;;;;;;22.16;64.15;98668.76;226090;1285;24738;-88
2023/10/12 11:12:22;;;;;;;9.00;5.40;;;;;;;22.02;64.05;98664.88;224631;1277;22557;-82
2023/10/12 11:17:30;;;;;;;8.40;4.90;;;;;;;21.95;64.47;98662.70;224378;1266;22547;-84
2023/10/12 11:22:37;;;;;;;9.00;4.50;;;;;;;21.96;64.60;98671.05;224688;1260;22587;-76
2023/10/12 11:27:41;;;;;;;9.40;4.70;;;;;;;21.94;64.46;98683.52;224888;1280;22602;-82
2023/10/12 11:33:12;;;;;;;9.60;5.00;;;;;;;21.99;64.63;98690.54;224821;1265;22542;-86
2023/10/12 11:38:17;;;;;;;8.80;5.40;;;;;;;22.08;64.81;98685.32;224393;1267;22537;-86
2023/10/12 11:43:28;;;;;;;7.10;4.70;;;;;;;22.17;64.56;98675.38;224469;1267;22552;-84
2023/10/12 11:48:43;;;;;;;9.20;5.20;;;;;;;22.33;64.85;98680.36;224543;1283;24257;-78
2023/10/12 11:53:53;;;;;;;9.60;4.90;;;;;;;22.66;64.51;98687.46;224566;1273;24254;-81
2023/10/12 11:58:57;;;;;;;7.70;5.30;;;;;;;22.84;64.09;98682.32;224623;1280;24236;-84
2023/10/12 12:04:52;;;;;;;;;;;;;;;;;;;;;
2023/10/12 12:11:09;;;;;;;9.00;5.60;;;;;;;22.84;63.15;98684.21;224806;1283;22570;-86
2023/10/12 12:16:22;;;;;;;7.80;5.40;;;;;;;22.90;63.40;98682.42;225110;1283;22695;-86
2023/10/12 12:21:31;;;;;;;8.30;5.40;;;;;;;23.06;63.45;98688.55;225806;1278;22645;-83
2023/10/12 12:26:57;;;;;;;10.10;6.10;;;;;;;23.04;63.17;98684.02;225614;1286;22495;-87
2023/10/12 12:32:31;;;;;;;11.00;6.10;;;;;;;22.90;63.33;98683.18;224942;1280;22577;-88
2023/10/12 12:38:00;;;;;;;;;;;;;;;;;;;;;
2023/10/12 12:43:15;;;;;;;9.80;5.60;;;;;;;22.50;64.04;98670.85;225737;1284;22520;-89
2023/10/12 12:48:33;;;;;;;9.10;5.70;;;;;;;22.22;65.27;98684.44;225696;1279;22606;-89
2023/10/12 12:53:50;;;;;;;10.20;6.10;;;;;;;21.94;65.34;98682.50;225004;1261;22576;-83
2023/10/12 12:58:54;;;;;;;10.70;7.40;;;;;;;21.68;65.64;98695.63;224892;1284;23064;-84
2023/10/12 13:04:35;;;;;;;;;;;;;;;;;;;;;
2023/10/12 13:09:48;;;;;;;8.90;5.60;;;;;;;21.27;67.25;98708.61;224889;1284;22593;-83
2023/10/12 13:15:29;;;;;;;9.80;5.70;;;;;;;21.02;67.70;98715.02;224834;1285;22577;-83
2023/10/12 13:20:57;;;;;;;9.80;6.10;;;;;;;20.61;68.47;98722.41;224623;1277;22565;-86
2023/10/12 13:26:10;;;;;;;8.50;5.50;;;;;;;20.25;69.05;98731.45;224814;1276;23037;-82
2023/10/12 13:31:30;;;;;;;12.50;6.00;;;;;;;19.91;69.95;98725.05;224611;1262;22602;-83
2023/10/12 13:37:00;;;;;;;8.30;5.90;;;;;;;19.67;70.85;98727.52;224754;1276;22545;-82
2023/10/12 13:42:12;;;;;;;9.90;6.40;;;;;;;19.45;71.80;98719.80;222249;1283;3477331;-84
2023/10/12 13:47:31;;;;;;;18.80;14.40;;;;;;;19.21;72.54;98716.34;224889;1276;22606;-82
2023/10/12 13:52:57;;;;;;;;;;;;;;;;;;;;;
2023/10/12 13:58:32;;;;;;;10.50;6.00;;;;;;;18.77;73.98;98716.33;224651;1276;22603;-81
2023/10/12 14:04:00;;;;;;;9.10;7.00;;;;;;;18.58;74.80;98717.06;224478;1284;22710;-80
2023/10/12 14:09:27;;;;;;;9.40;6.90;;;;;;;18.43;75.27;98713.30;224673;1284;23801;-81
2023/10/12 14:14:55;;;;;;;10.80;7.20;;;;;;;18.33;75.79;98723.40;224814;1277;22565;-81
2023/10/12 14:20:28;;;;;;;10.60;7.00;;;;;;;18.26;76.46;98731.86;224829;1284;22579;-81
2023/10/12 14:26:10;;;;;;;;;;;;;;;;;;;;;
2023/10/12 14:31:16;;;;;;;15.10;9.10;;;;;;;18.11;77.40;98741.20;225204;1283;22691;-81
2023/10/12 14:36:19;;;;;;;14.50;8.60;;;;;;;18.02;77.77;98750.34;225319;1284;22577;-81
2023/10/12 14:41:21;;;;;;;10.70;7.80;;;;;;;17.98;78.34;98759.88;225122;1285;25346;-82
2023/10/12 14:46:32;;;;;;;11.50;7.60;;;;;;;17.90;78.52;98764.98;225106;1283;22568;-81
2023/10/12 14:52:07;;;;;;;;;;;;;;;;;;;;;
2023/10/12 14:58:09;;;;;;;;;;;;;;;;;;;;;
2023/10/12 15:03:34;;;;;;;11.80;9.40;;;;;;;17.46;80.16;98757.60;225284;1280;22562;-81
2023/10/12 15:09:03;;;;;;;12.30;8.20;;;;;;;17.28;80.94;98753.45;225280;1284;22546;-80
2023/10/12 15:21:31;;;;;;;11.90;8.80;;;;;;;16.99;82.34;98754.45;225211;1284;22558;-81
2023/10/12 15:27:31;;;;;;;10.30;7.60;;;;;;;16.88;82.62;98757.81;225160;1284;22561;-81
2023/10/12 15:32:41;;;;;;;10.60;8.70;;;;;;;16.76;83.05;98766.00;225282;1284;24547;-81
2023/10/12 15:37:56;;;;;;;10.80;7.80;;;;;;;16.67;83.13;98770.02;225257;1284;22545;-81
2023/10/12 15:43:51;;;;;;;;;;;;;;;;;;;;;
2023/10/12 15:49:32;;;;;;;11.50;7.90;;;;;;;16.49;83.50;98766.61;225289;1284;22569;-81
2023/10/12 15:55:29;;;;;;;;;;;;;;;;;;;;;
2023/10/12 16:01:26;;;;;;;11.00;7.30;;;;;;;16.35;83.44;98775.40;225326;1284;22543;-81
2023/10/12 16:07:02;;;;;;;;;;;;;;;;;;;;;
2023/10/12 16:12:28;;;;;;;16.00;9.40;;;;;;;16.25;83.71;98774.06;225171;1284;25331;-81
2023/10/12 16:17:32;;;;;;;13.70;10.90;;;;;;;16.21;84.05;98774.52;225194;1283;22550;-82
2023/10/12 16:22:41;;;;;;;17.70;12.10;;;;;;;16.16;84.34;98776.59;225256;1283;22545;-80
2023/10/12 16:28:54;;;;;;;12.70;10.90;;;;;;;16.12;84.20;98780.84;224880;1288;22598;-81
2023/10/12 16:34:12;;;;;;;14.80;9.90;;;;;;;16.08;84.46;98783.00;224858;1288;22552;-80
2023/10/12 16:39:22;;;;;;;11.80;9.10;;;;;;;16.06;84.35;98790.04;224935;1286;22618;-81
2023/10/12 16:44:53;;;;;;;18.50;9.50;;;;;;;16.02;84.62;98793.66;224866;1286;22607;-80
2023/10/12 16:51:05;;;;;;;13.50;8.60;;;;;;;15.97;84.61;98799.55;224869;1284;24938;-80
2023/10/12 16:56:52;;;;;;;11.80;9.00;;;;;;;15.95;84.71;98805.91;225049;1284;22550;-80
2023/10/12 17:02:21;;;;;;;15.10;9.80;;;;;;;15.94;84.69;98811.66;225259;1284;22543;-81
2023/10/12 17:08:02;;;;;;;;;;;;;;;;;;;;;
2023/10/12 17:13:18;;;;;;;;;;;;;;;;;;;;;
2023/10/12 17:18:55;;;;;;;14.00;9.40;;;;;;;15.87;85.13;98825.84;225110;1286;22564;-81
2023/10/12 17:24:05;;;;;;;14.30;9.20;;;;;;;15.87;85.22;98830.16;225162;1280;24725;-81
2023/10/12 17:29:37;;;;;;;14.10;8.80;;;;;;;15.87;85.12;98833.15;225067;1286;22597;-80
2023/10/12 17:35:55;;;;;;;14.20;9.60;;;;;;;15.88;85.12;98837.27;225094;1269;22540;-80
2023/10/12 17:48:28;;;;;;;14.10;10.40;;;;;;;15.85;85.41;98849.77;225260;1284;22546;-80
2023/10/12 17:54:35;;;;;;;15.10;10.90;;;;;;;15.84;85.50;98855.55;225273;1284;22585;-80
2023/10/12 18:00:29;;;;;;;;;;;;;;;;;;;;;
2023/10/12 18:06:32;;;;;;;14.70;11.30;;;;;;;15.71;85.77;98858.29;225266;1284;25009;-81
2023/10/12 18:11:50;;;;;;;16.90;12.60;;;;;;;15.60;86.01;98853.88;225259;1284;22551;-81
2023/10/12 18:17:51;;;;;;;19.00;13.60;;;;;;;15.50;86.41;98860.69;225302;1284;22583;-81
2023/10/12 18:30:18;;;;;;;15.80;11.60;;;;;;;15.42;86.92;98873.26;225271;1285;22559;-81
2023/10/12 18:36:24;;;;;;;15.50;10.90;;;;;;;15.42;87.09;98873.63;225254;1284;25292;-80
2023/10/12 18:42:09;;;;;;;;;;;;;;;;;;;;;
2023/10/12 18:47:27;;;;;;;16.20;11.50;;;;;;;15.39;86.87;98868.73;225270;1261;22546;-81
2023/10/12 18:52:49;;;;;;;14.30;9.90;;;;;;;15.35;87.05;98855.61;225279;1284;24418;-81
2023/10/12 18:57:55;;;;;;;13.10;9.30;;;;;;;15.31;86.75;98853.55;225233;1284;25296;-81
2023/10/12 19:03:21;;;;;;;15.30;10.10;;;;;;;15.23;86.61;98853.25;225201;1284;22562;-81
2023/10/12 19:08:25;;;;;;;16.60;10.40;;;;;;;15.15;86.80;98857.23;225270;1283;22607;-81
2023/10/12 19:13:29;;;;;;;15.80;10.70;;;;;;;15.09;87.03;98856.55;225230;1284;26906;-81
2023/10/12 19:18:32;;;;;;;14.40;9.70;;;;;;;15.02;87.12;98849.83;225205;1283;22546;-81
2023/10/12 19:23:35;;;;;;;14.20;9.40;;;;;;;14.94;87.20;98843.01;225237;1267;22546;-81
2023/10/12 19:28:41;;;;;;;13.20;9.20;;;;;;;14.86;87.07;98846.81;225287;1283;22540;-81
2023/10/12 19:33:44;;;;;;;15.90;10.60;;;;;;;14.77;87.37;98848.91;225221;1284;22552;-81
2023/10/12 19:38:58;;;;;;;14.30;9.50;;;;;;;14.69;87.51;98839.54;225192;1283;22542;-81
2023/10/12 19:44:19;;;;;;;13.60;10.40;;;;;;;14.66;87.52;98840.39;225222;1280;22556;-82
2023/10/12 19:49:27;;;;;;;17.20;10.80;;;;;;;14.65;87.45;98840.11;225283;1284;22592;-81
2023/10/12 19:54:39;;;;;;;13.40;9.80;;;;;;;14.67;87.62;98839.69;225324;1280;22565;-81
2023/10/12 19:59:42;;;;;;;17.30;10.70;;;;;;;14.68;87.37;98841.04;225235;1283;22546;-82
2023/10/12 20:05:10;;;;;;;20.50;13.80;;;;;;;14.66;87.64;98844.64;225263;1283;22606;-80
2023/10/12 20:10:29;;;;;;;17.80;13.60;;;;;;;14.62;87.60;98845.55;225138;1284;24259;-80
2023/10/12 20:15:36;;;;;;;16.90;11.40;;;;;;;14.56;87.54;98843.73;225267;1273;22587;-81
2023/10/12 20:20:47;;;;;;;16.30;11.80;;;;;;;14.55;87.96;98839.49;225252;1283;24239;-81
2023/10/12 20:25:53;;;;;;;20.50;12.40;;;;;;;14.55;87.91;98841.16;225246;1284;25411;-81
2023/10/12 20:31:34;;;;;;;;;;;;;;;;;;;;;
2023/10/12 20:37:08;;;;;;;;;;;;;;;;;;;;;
2023/10/12 20:43:50;;;;;;;;;;;;;;;;;;;;;
2023/10/12 20:49:39;;;;;;;;;;;;;;;;;;;;;
2023/10/12 20:55:14;;;;;;;29.80;21.00;;;;;;;14.44;88.37;98848.29;225196;1267;24248;-81
2023/10/12 21:01:31;;;;;;;;;;;;;;;;;;;;;
2023/10/12 21:06:58;;;;;;;31.90;21.50;;;;;;;14.47;88.20;98841.41;225306;1284;22551;-80
2023/10/12 21:12:54;;;;;;;32.00;22.90;;;;;;;14.48;88.50;98834.98;225227;1283;22556;-79
2023/10/12 21:18:36;;;;;;;;;;;;;;;14.48;88.55;98835.68;225195;1284;22538;-81
2023/10/12 21:24:28;;;;;;;;;;;;;;;;;;;;;
2023/10/12 21:30:04;;;;;;;31.30;21.60;;;;;;;14.42;88.60;98837.00;224910;1286;22614;-80
2023/10/12 21:35:37;;;;;;;27.90;20.50;;;;;;;14.38;88.32;98839.14;224986;1284;22567;-80
2023/10/12 21:41:43;;;;;;;29.40;20.00;;;;;;;14.36;88.76;98836.85;224948;1287;22584;-81
2023/10/12 21:48:23;;;;;;;;;;;;;;;;;;;;;
2023/10/12 21:54:50;;;;;;;;;;;;;;;;;;;;;
2023/10/12 22:01:07;;;;;;;24.40;19.40;;;;;;;14.26;88.75;98829.77;225232;1284;25742;-81
2023/10/12 22:07:23;;;;;;;27.70;18.30;;;;;;;14.21;89.03;98831.55;224951;1276;22585;-81
2023/10/12 22:13:27;;;;;;;24.20;17.30;;;;;;;14.18;88.85;98838.18;224905;1288;22527;-81
2023/10/12 22:19:11;;;;;;;27.70;18.40;;;;;;;14.15;88.96;98838.60;224952;1288;22556;-81
2023/10/12 22:25:35;;;;;;;;;;;;;;;;;;;;;
2023/10/12 22:31:18;;;;;;;26.40;16.80;;;;;;;14.14;89.21;98841.02;224776;1284;22558;-81
2023/10/12 22:37:46;;;;;;;25.50;17.40;;;;;;;14.15;89.46;98835.48;225227;1284;24221;-81
2023/10/12 22:51:29;;;;;;;;;;;;;;;;;;;;;
2023/10/12 22:58:01;;;;;;;22.50;15.70;;;;;;;13.99;89.50;98850.61;225233;1284;22594;-81
2023/10/12 23:03:32;;;;;;;25.60;17.20;;;;;;;13.97;89.63;98847.51;225160;1283;23338;-80
2023/10/12 23:09:48;;;;;;;25.40;16.40;;;;;;;14.00;89.86;98855.64;225168;1284;22609;-80
2023/10/12 23:22:17;;;;;;;22.90;16.20;;;;;;;14.13;89.82;98859.77;225212;1279;25391;-80
2023/10/12 23:28:15;;;;;;;;;;;;;;;;;;;;;
2023/10/12 23:33:58;;;;;;;22.80;15.80;;;;;;;14.23;89.80;98855.47;225284;1283;22545;-80
2023/10/12 23:39:53;;;;;;;22.30;16.20;;;;;;;14.26;89.70;98847.46;225255;1284;22540;-81
2023/10/12 23:46:43;;;;;;;26.20;17.90;;;;;;;14.29;89.71;98850.61;225278;1285;22645;-81
2023/10/12 23:52:38;;;;;;;;;;;;;;;;;;;;;
2023/10/12 23:58:21;;;;;;;26.40;18.20;;;;;;;14.29;89.66;98842.59;225172;1284;22564;-80
